createdAt,value
2016-12-27T00:00:42.406Z,81.391
2016-12-27T00:03:35.927Z,80.470
2016-12-27T00:06:29.380Z,80.802
2016-12-27T00:09:22.874Z,80.185
2016-12-27T00:12:16.290Z,80.605
2016-12-27T00:15:09.737Z,80.248
2016-12-27T00:18:03.150Z,80.968
2016-12-27T00:20:56.600Z,80.068
2016-12-27T00:23:51.809Z,80.236
2016-12-27T00:26:43.608Z,80.168
2016-12-27T00:29:37.113Z,80.485
2016-12-27T00:32:30.603Z,79.938
2016-12-27T00:35:24.163Z,79.812
2016-12-27T00:38:17.727Z,80.221
2016-12-27T00:41:11.777Z,80.080
2016-12-27T00:44:06.954Z,80.174
2016-12-27T00:46:58.834Z,80.258
2016-12-27T00:49:52.366Z,81.526
2016-12-27T00:52:45.869Z,81.343
2016-12-27T00:55:39.414Z,81.962
2016-12-27T00:58:32.986Z,80.801
2016-12-27T01:01:26.572Z,81.144
2016-12-27T01:04:21.669Z,81.033
2016-12-27T01:07:13.526Z,80.694
2016-12-27T01:10:07.290Z,80.040
2016-12-27T01:13:00.827Z,80.333
2016-12-27T01:15:54.351Z,80.327
2016-12-27T01:18:47.833Z,81.071
2016-12-27T01:21:41.247Z,80.217
2016-12-27T01:24:34.734Z,79.760
2016-12-27T01:27:28.252Z,80.554
2016-12-27T01:30:21.795Z,79.569
2016-12-27T01:33:15.329Z,79.740
2016-12-27T01:36:10.460Z,79.589
2016-12-27T01:39:02.250Z,79.915
2016-12-27T01:41:55.815Z,79.804
2016-12-27T01:44:49.344Z,80.485
2016-12-27T01:47:42.835Z,80.162
2016-12-27T01:50:38.786Z,80.312
2016-12-27T01:53:30.375Z,80.572
2016-12-27T01:56:25.562Z,80.994
2016-12-27T01:59:17.320Z,81.778
2016-12-27T02:02:10.769Z,81.485
2016-12-27T02:05:04.139Z,81.467
2016-12-27T02:07:57.528Z,81.948
2016-12-27T02:10:51.023Z,81.631
2016-12-27T02:13:44.531Z,81.321
2016-12-27T02:16:37.958Z,81.407
2016-12-27T02:19:33.199Z,81.861
2016-12-27T02:22:25.009Z,82.142
2016-12-27T02:25:18.663Z,81.327
2016-12-27T02:28:12.053Z,81.586
2016-12-27T02:31:05.564Z,81.095
2016-12-27T02:33:59.065Z,80.593
2016-12-27T02:36:54.257Z,80.836
2016-12-27T02:39:47.657Z,80.416
2016-12-27T02:42:39.426Z,80.268
2016-12-27T02:45:34.450Z,80.100
2016-12-27T02:48:28.169Z,80.711
2016-12-27T02:51:19.870Z,80.429
2016-12-27T02:54:15.085Z,80.759
2016-12-27T02:57:06.864Z,79.993
2016-12-27T03:00:00.351Z,80.072
2016-12-27T03:02:53.868Z,80.599
2016-12-27T03:05:47.507Z,79.963
2016-12-27T03:08:40.903Z,80.092
2016-12-27T03:11:36.099Z,80.662
2016-12-27T03:14:29.618Z,80.099
2016-12-27T03:17:21.383Z,80.477
2016-12-27T03:20:14.804Z,80.385
2016-12-27T03:23:08.387Z,80.785
2016-12-27T03:26:01.793Z,80.382
2016-12-27T03:28:55.164Z,80.568
2016-12-27T03:31:48.587Z,80.688
2016-12-27T03:34:42.057Z,80.043
2016-12-27T03:37:35.514Z,80.376
2016-12-27T03:40:30.690Z,80.541
2016-12-27T03:43:24.176Z,80.062
2016-12-27T03:46:16.021Z,80.251
2016-12-27T03:49:09.555Z,80.278
2016-12-27T03:52:04.718Z,80.742
2016-12-27T03:54:56.576Z,80.460
2016-12-27T03:57:50.075Z,80.601
2016-12-27T04:00:43.503Z,79.921
2016-12-27T04:03:36.937Z,80.000
2016-12-27T04:06:30.436Z,80.243
2016-12-27T04:09:23.926Z,80.540
2016-12-27T04:12:17.546Z,80.187
2016-12-27T04:15:10.952Z,80.693
2016-12-27T04:18:06.172Z,80.338
2016-12-27T04:20:59.759Z,80.111
2016-12-27T04:23:51.500Z,80.338
2016-12-27T04:26:44.994Z,80.514
2016-12-27T04:29:38.359Z,80.219
2016-12-27T04:32:33.590Z,80.288
2016-12-27T04:35:25.485Z,80.362
2016-12-27T04:38:18.937Z,79.708
2016-12-27T04:41:14.148Z,79.995
2016-12-27T04:44:06.011Z,79.822
2016-12-27T04:47:01.185Z,79.653
2016-12-27T04:49:53.418Z,80.183
2016-12-27T04:52:48.542Z,79.993
2016-12-27T04:55:40.351Z,80.249
2016-12-27T04:58:33.804Z,79.769
2016-12-27T05:01:27.387Z,80.303
2016-12-27T05:04:22.644Z,80.643
2016-12-27T05:07:14.196Z,80.617
2016-12-27T05:10:07.705Z,79.859
2016-12-27T05:13:01.254Z,80.814
2016-12-27T05:15:56.348Z,80.499
2016-12-27T05:18:48.147Z,80.547
2016-12-27T05:21:41.655Z,80.666
2016-12-27T05:24:35.128Z,80.898
2016-12-27T05:27:28.615Z,81.358
2016-12-27T05:30:22.070Z,81.670
2016-12-27T05:33:15.480Z,81.774
2016-12-27T05:36:08.946Z,82.013
2016-12-27T05:39:04.111Z,81.963
2016-12-27T05:41:55.965Z,82.370
2016-12-27T05:44:51.140Z,82.614
2016-12-27T05:47:44.732Z,82.600
2016-12-27T05:50:36.354Z,82.881
2016-12-27T05:53:31.513Z,82.838
2016-12-27T05:56:23.279Z,83.020
2016-12-27T05:59:16.685Z,83.600
2016-12-27T06:02:10.103Z,84.615
2016-12-27T06:05:03.546Z,85.283
2016-12-27T06:07:57.034Z,85.283
2016-12-27T06:10:50.450Z,86.290
2016-12-27T06:13:43.941Z,86.459
2016-12-27T06:16:37.359Z,87.769
2016-12-27T06:19:30.756Z,88.064
2016-12-27T06:22:24.391Z,88.001
2016-12-27T06:25:17.716Z,88.400
2016-12-27T06:28:11.082Z,86.621
2016-12-27T06:31:04.540Z,87.352
2016-12-27T06:33:58.427Z,86.805
2016-12-27T06:36:51.845Z,87.574
2016-12-27T06:39:45.401Z,86.438
2016-12-27T06:42:39.306Z,87.680
2016-12-27T06:45:32.687Z,86.728
2016-12-27T06:48:26.095Z,86.375
2016-12-27T06:51:19.391Z,86.579
2016-12-27T06:54:14.689Z,86.259
2016-12-27T06:57:06.432Z,86.385
2016-12-27T06:59:59.865Z,87.699
2016-12-27T07:02:55.171Z,87.686
2016-12-27T07:05:46.699Z,88.404
2016-12-27T07:08:41.903Z,87.016
2016-12-27T07:11:33.672Z,86.770
2016-12-27T07:14:28.813Z,86.380
2016-12-27T07:17:20.667Z,86.752
2016-12-27T07:20:15.874Z,86.496
2016-12-27T07:23:07.571Z,85.547
2016-12-27T07:26:00.999Z,85.591
2016-12-27T07:28:54.313Z,86.106
2016-12-27T07:31:48.034Z,85.703
2016-12-27T07:34:41.273Z,85.894
2016-12-27T07:37:34.700Z,85.446
2016-12-27T07:40:28.015Z,86.140
2016-12-27T07:43:21.493Z,85.311
2016-12-27T07:46:16.645Z,85.410
2016-12-27T07:49:08.391Z,85.213
2016-12-27T07:52:01.821Z,85.070
2016-12-27T07:54:55.345Z,84.974
2016-12-27T07:57:48.674Z,84.934
2016-12-27T08:00:43.861Z,84.916
2016-12-27T08:03:35.618Z,85.207
2016-12-27T08:06:29.025Z,85.455
2016-12-27T08:09:22.463Z,85.855
2016-12-27T08:12:15.854Z,85.246
2016-12-27T08:15:10.905Z,84.754
2016-12-27T08:18:02.807Z,84.393
2016-12-27T08:20:56.332Z,84.151
2016-12-27T08:23:49.792Z,83.851
2016-12-27T08:26:43.274Z,83.728
2016-12-27T08:29:38.564Z,83.635
2016-12-27T08:32:30.333Z,83.821
2016-12-27T08:35:23.759Z,83.869
2016-12-27T08:38:18.913Z,83.843
2016-12-27T08:41:10.742Z,83.679
2016-12-27T08:44:04.171Z,83.820
2016-12-27T08:46:57.578Z,84.029
2016-12-27T08:49:51.417Z,83.754
2016-12-27T08:52:44.914Z,83.503
2016-12-27T08:55:38.287Z,83.345
2016-12-27T08:58:31.744Z,83.010
2016-12-27T09:01:25.830Z,83.546
2016-12-27T09:04:19.875Z,83.524
2016-12-27T09:07:13.435Z,82.563
2016-12-27T09:10:06.885Z,82.757
2016-12-27T09:13:00.326Z,82.113
2016-12-27T09:15:53.842Z,82.131
2016-12-27T09:18:49.034Z,82.679
2016-12-27T09:21:40.968Z,82.781
2016-12-27T09:24:34.383Z,81.008
2016-12-27T09:27:29.640Z,80.514
2016-12-27T09:30:21.456Z,80.380
2016-12-27T09:33:15.033Z,79.008
2016-12-27T09:36:08.424Z,77.330
2016-12-27T09:39:02.069Z,77.234
2016-12-27T09:41:55.663Z,76.318
2016-12-27T09:44:49.171Z,76.197
2016-12-27T09:47:44.423Z,74.389
2016-12-27T09:50:36.237Z,73.105
2016-12-27T09:53:29.745Z,73.916
2016-12-27T09:56:23.242Z,72.777
2016-12-27T09:59:16.802Z,74.158
2016-12-27T10:02:10.254Z,74.139
2016-12-27T10:05:03.738Z,71.228
2016-12-27T10:07:57.409Z,70.416
2016-12-27T10:10:50.896Z,69.696
2016-12-27T10:13:46.137Z,72.911
2016-12-27T10:16:39.781Z,70.878
2016-12-27T10:19:31.811Z,70.787
2016-12-27T10:22:27.298Z,69.558
2016-12-27T10:25:19.284Z,70.065
2016-12-27T10:28:14.650Z,69.377
2016-12-27T10:31:06.703Z,69.434
2016-12-27T10:34:00.497Z,68.773
2016-12-27T10:36:56.006Z,67.793
2016-12-27T10:39:48.086Z,69.131
2016-12-27T10:42:41.833Z,70.675
2016-12-27T10:45:37.344Z,69.624
2016-12-27T10:48:29.342Z,67.830
2016-12-27T10:51:23.154Z,68.463
2016-12-27T10:54:18.646Z,68.669
2016-12-27T10:57:11.223Z,68.620
2016-12-27T11:00:05.009Z,69.201
2016-12-27T11:02:58.789Z,69.905
2016-12-27T11:05:54.452Z,68.720
2016-12-27T11:08:48.162Z,69.284
2016-12-27T11:11:41.738Z,69.692
2016-12-27T11:14:33.952Z,69.314
2016-12-27T11:17:28.048Z,67.892
2016-12-27T11:20:23.522Z,68.399
2016-12-27T11:23:17.439Z,68.044
2016-12-27T11:26:09.502Z,69.225
2016-12-27T11:29:03.199Z,67.594
2016-12-27T11:31:56.959Z,69.841
2016-12-27T11:34:50.846Z,68.245
2016-12-27T11:37:44.609Z,66.655
2016-12-27T11:40:38.419Z,66.533
2016-12-27T11:43:34.087Z,66.817
2016-12-27T11:46:26.136Z,68.287
2016-12-27T11:49:21.630Z,68.099
2016-12-27T11:52:13.586Z,68.369
2016-12-27T11:55:07.235Z,69.159
2016-12-27T11:58:01.061Z,68.593
2016-12-27T12:00:55.065Z,67.934
2016-12-27T12:03:48.689Z,68.447
2016-12-27T12:06:42.386Z,67.559
2016-12-27T12:09:36.189Z,67.966
2016-12-27T12:12:29.999Z,67.517
2016-12-27T12:15:23.696Z,67.690
2016-12-27T12:18:19.190Z,67.128
2016-12-27T12:21:11.114Z,67.524
2016-12-27T12:24:06.840Z,68.254
2016-12-27T12:26:58.992Z,67.387
2016-12-27T12:29:52.674Z,66.801
2016-12-27T12:32:46.460Z,65.809
2016-12-27T12:35:40.199Z,64.445
2016-12-27T12:38:33.889Z,64.137
2016-12-27T12:41:27.655Z,64.212
2016-12-27T12:44:21.542Z,65.274
2016-12-27T12:47:15.267Z,64.046
2016-12-27T12:50:10.652Z,64.348
2016-12-27T12:53:02.728Z,63.805
2016-12-27T12:55:58.239Z,63.382
2016-12-27T12:58:50.443Z,64.638
2016-12-27T13:01:44.181Z,66.479
2016-12-27T13:04:37.940Z,63.613
2016-12-27T13:07:31.732Z,65.037
2016-12-27T13:10:25.516Z,64.903
2016-12-27T13:13:19.287Z,63.475
2016-12-27T13:16:13.063Z,64.515
2016-12-27T13:19:06.819Z,63.610
2016-12-27T13:22:00.453Z,64.009
2016-12-27T13:24:54.241Z,64.204
2016-12-27T13:27:47.908Z,64.487
2016-12-27T13:30:41.635Z,65.289
2016-12-27T13:33:35.458Z,66.464
2016-12-27T13:36:31.035Z,66.298
2016-12-27T13:39:24.959Z,65.731
2016-12-27T13:42:17.114Z,66.004
2016-12-27T13:45:10.821Z,66.230
2016-12-27T13:48:04.439Z,66.287
2016-12-27T13:50:58.308Z,66.101
2016-12-27T13:53:52.085Z,67.118
2016-12-27T13:56:45.888Z,66.511
2016-12-27T13:59:41.355Z,66.640
2016-12-27T14:02:33.422Z,65.999
2016-12-27T14:05:27.212Z,65.706
2016-12-27T14:08:20.895Z,65.054
2016-12-27T14:11:16.695Z,66.123
2016-12-27T14:14:08.750Z,66.991
2016-12-27T14:17:02.456Z,67.293
2016-12-27T14:19:56.231Z,67.063
2016-12-27T14:22:49.872Z,67.137
2016-12-27T14:25:43.684Z,67.669
2016-12-27T14:28:37.315Z,68.125
2016-12-27T14:31:32.677Z,67.975
2016-12-27T14:34:24.772Z,68.275
2016-12-27T14:37:18.476Z,69.314
2016-12-27T14:40:12.132Z,68.784
2016-12-27T14:43:05.934Z,69.340
2016-12-27T14:45:59.658Z,68.580
2016-12-27T14:48:53.353Z,67.717
2016-12-27T14:51:46.986Z,67.829
2016-12-27T14:54:40.635Z,68.000
2016-12-27T14:57:34.262Z,68.250
2016-12-27T15:00:27.958Z,69.027
2016-12-27T15:03:21.632Z,68.676
2016-12-27T15:06:15.257Z,69.501
2016-12-27T15:09:10.638Z,69.666
2016-12-27T15:12:02.666Z,69.817
2016-12-27T15:14:56.222Z,70.351
2016-12-27T15:17:49.805Z,69.737
2016-12-27T15:20:43.442Z,69.976
2016-12-27T15:23:37.069Z,69.874
2016-12-27T15:26:30.640Z,69.970
2016-12-27T15:29:24.249Z,70.332
2016-12-27T15:32:17.831Z,70.750
2016-12-27T15:35:11.372Z,70.883
2016-12-27T15:38:06.508Z,70.869
2016-12-27T15:41:00.122Z,70.652
2016-12-27T15:43:51.814Z,71.136
2016-12-27T15:46:47.067Z,71.215
2016-12-27T15:49:38.949Z,71.462
2016-12-27T15:52:32.419Z,70.812
2016-12-27T15:55:25.951Z,71.210
2016-12-27T15:58:19.321Z,71.525
2016-12-27T16:01:12.900Z,71.281
2016-12-27T16:04:06.444Z,71.362
2016-12-27T16:06:59.927Z,71.337
2016-12-27T16:09:53.421Z,71.244
2016-12-27T16:12:48.785Z,71.532
2016-12-27T16:15:40.453Z,71.574
2016-12-27T16:18:34.138Z,72.018
2016-12-27T16:21:27.559Z,71.975
2016-12-27T16:24:22.948Z,71.534
2016-12-27T16:27:16.364Z,71.899
2016-12-27T16:30:09.908Z,71.924
2016-12-27T16:33:01.798Z,72.844
2016-12-27T16:35:57.001Z,72.870
2016-12-27T16:38:48.766Z,72.875
2016-12-27T16:41:42.270Z,73.446
2016-12-27T16:44:35.812Z,72.691
2016-12-27T16:47:29.224Z,73.103
2016-12-27T16:50:22.628Z,73.268
2016-12-27T16:53:16.203Z,73.468
2016-12-27T16:56:09.726Z,74.680
2016-12-27T16:59:03.164Z,73.610
2016-12-27T17:01:58.391Z,74.104
2016-12-27T17:04:50.126Z,74.744
2016-12-27T17:07:43.844Z,74.189
2016-12-27T17:10:37.260Z,74.769
2016-12-27T17:13:30.721Z,74.491
2016-12-27T17:16:26.000Z,74.711
2016-12-27T17:19:17.603Z,75.004
2016-12-27T17:22:12.912Z,74.684
2016-12-27T17:25:04.618Z,75.141
2016-12-27T17:27:58.059Z,75.194
2016-12-27T17:30:53.267Z,75.711
2016-12-27T17:33:46.746Z,76.292
2016-12-27T17:36:38.507Z,76.611
2016-12-27T17:39:33.684Z,76.230
2016-12-27T17:42:27.237Z,76.496
2016-12-27T17:45:19.028Z,76.208
2016-12-27T17:48:12.520Z,76.891
2016-12-27T17:51:05.978Z,77.488
2016-12-27T17:53:59.436Z,76.780
2016-12-27T17:56:53.114Z,77.919
2016-12-27T17:59:48.293Z,78.012
2016-12-27T18:02:40.165Z,78.584
2016-12-27T18:05:35.342Z,77.933
2016-12-27T18:08:27.256Z,77.695
2016-12-27T18:11:20.671Z,78.222
2016-12-27T18:14:14.236Z,78.750
2016-12-27T18:17:07.712Z,78.922
2016-12-27T18:20:03.038Z,78.928
2016-12-27T18:22:54.623Z,78.715
2016-12-27T18:25:49.922Z,78.958
2016-12-27T18:28:43.404Z,78.630
2016-12-27T18:31:36.945Z,79.262
2016-12-27T18:34:28.768Z,79.576
2016-12-27T18:37:22.271Z,79.560
2016-12-27T18:40:15.667Z,79.456
2016-12-27T18:43:10.903Z,79.690
2016-12-27T18:46:04.369Z,79.745
2016-12-27T18:48:56.144Z,79.912
2016-12-27T18:51:49.611Z,80.142
2016-12-27T18:54:43.094Z,80.280
2016-12-27T18:57:36.579Z,80.305
2016-12-27T19:00:30.096Z,80.051
2016-12-27T19:03:25.359Z,79.708
2016-12-27T19:06:17.207Z,80.225
2016-12-27T19:09:10.696Z,81.000
2016-12-27T19:12:04.217Z,80.790
2016-12-27T19:14:58.007Z,81.315
2016-12-27T19:17:51.422Z,81.282
2016-12-27T19:20:46.644Z,81.253
2016-12-27T19:23:38.394Z,81.149
2016-12-27T19:26:31.864Z,81.983
2016-12-27T19:29:25.185Z,81.720
2016-12-27T19:32:18.610Z,81.730
2016-12-27T19:35:12.065Z,82.439
2016-12-27T19:38:05.586Z,82.572
2016-12-27T19:40:59.144Z,82.458
2016-12-27T19:43:54.344Z,82.303
2016-12-27T19:46:46.090Z,82.588
2016-12-27T19:49:39.618Z,82.023
2016-12-27T19:52:33.099Z,82.483
2016-12-27T19:55:26.499Z,82.910
2016-12-27T19:58:20.684Z,83.529
2016-12-27T20:01:13.358Z,83.047
2016-12-27T20:04:09.011Z,82.693
2016-12-27T20:07:02.499Z,83.187
2016-12-27T20:09:54.377Z,81.922
2016-12-27T20:12:47.895Z,83.371
2016-12-27T20:15:41.417Z,83.016
2016-12-27T20:18:34.838Z,83.559
2016-12-27T20:21:28.346Z,83.619
2016-12-27T20:24:21.875Z,84.623
2016-12-27T20:27:15.299Z,85.430
2016-12-27T20:30:08.796Z,83.684
2016-12-27T20:33:02.410Z,86.242
2016-12-27T20:35:55.798Z,86.055
2016-12-27T20:38:49.377Z,86.035
2016-12-27T20:41:44.509Z,86.256
2016-12-27T20:44:36.438Z,86.222
2016-12-27T20:47:29.963Z,86.685
2016-12-27T20:50:25.185Z,85.074
2016-12-27T20:53:16.858Z,86.294
2016-12-27T20:56:12.110Z,87.373
2016-12-27T20:59:03.893Z,87.270
2016-12-27T21:01:59.124Z,87.128
2016-12-27T21:04:50.978Z,86.371
2016-12-27T21:07:44.368Z,88.941
2016-12-27T21:10:37.911Z,89.472
2016-12-27T21:13:31.344Z,88.177
2016-12-27T21:16:24.807Z,89.508
2016-12-27T21:19:18.265Z,90.454
2016-12-27T21:22:13.455Z,89.682
2016-12-27T21:25:05.334Z,90.873
2016-12-27T21:27:58.877Z,87.892
2016-12-27T21:30:52.351Z,90.798
2016-12-27T21:33:47.698Z,90.833
2016-12-27T21:36:41.104Z,91.269
2016-12-27T21:39:32.886Z,91.451
2016-12-27T21:42:26.383Z,91.218
2016-12-27T21:45:19.849Z,91.511
2016-12-27T21:48:13.289Z,92.893
2016-12-27T21:51:06.717Z,92.627
2016-12-27T21:54:00.210Z,92.899
2016-12-27T21:56:53.754Z,94.128
2016-12-27T21:59:47.170Z,94.354
2016-12-27T22:02:42.320Z,94.224
2016-12-27T22:05:34.168Z,94.152
2016-12-27T22:08:29.329Z,93.325
2016-12-27T22:11:21.276Z,93.656
2016-12-27T22:14:14.648Z,93.103
2016-12-27T22:17:08.148Z,93.170
2016-12-27T22:20:01.596Z,93.944
2016-12-27T22:22:55.032Z,93.893
2016-12-27T22:25:48.503Z,93.359
2016-12-27T22:28:41.953Z,93.958
2016-12-27T22:31:35.459Z,93.711
2016-12-27T22:34:29.064Z,93.076
2016-12-27T22:37:22.434Z,92.349
2016-12-27T22:40:15.914Z,93.146
2016-12-27T22:43:09.416Z,92.826
2016-12-27T22:46:02.868Z,93.288
2016-12-27T22:48:56.362Z,92.669
2016-12-27T22:51:49.873Z,93.369
2016-12-27T22:54:43.224Z,93.150
2016-12-27T22:57:38.466Z,94.325
2016-12-27T23:00:30.309Z,94.723
2016-12-27T23:03:23.762Z,94.179
2016-12-27T23:06:19.084Z,94.229
2016-12-27T23:09:10.894Z,94.435
2016-12-27T23:12:04.364Z,94.907
2016-12-27T23:14:57.740Z,94.921
2016-12-27T23:17:51.268Z,94.467
2016-12-27T23:20:46.346Z,94.876
2016-12-27T23:23:38.172Z,95.514
2016-12-27T23:26:31.550Z,94.665
2016-12-27T23:29:24.964Z,95.397
2016-12-27T23:32:18.421Z,95.108
2016-12-27T23:35:13.700Z,95.989
2016-12-27T23:38:05.489Z,95.453
2016-12-27T23:40:59.674Z,95.541
2016-12-27T23:43:54.206Z,96.046
2016-12-27T23:46:45.994Z,96.248
2016-12-27T23:49:39.700Z,96.268
2016-12-27T23:52:33.146Z,96.242
2016-12-27T23:55:28.644Z,96.264
2016-12-27T23:58:20.418Z,96.208
